Time;durP1;ratioP1;P1;durP2;ratioP2;P2;SDS_P1;SDS_P2;PMS_P1;PMS_P2;Temp;Humidity;BMP_temperature;BMP_pressure;BME280_temperature;BME280_humidity;BME280_pressure;Samples;Min_cycle;Max_cycle;Signal;HPM_P1;HPM_P2
2024/01/27 00:01:56;;;;;;;20.08;4.95;;;5.30;99.90;;;;;;4967918;28;20121;-60
2024/01/27 00:04:21;;;;;;;27.25;4.43;;;5.30;99.90;;;;;;5003653;28;20171;-60
2024/01/27 00:06:47;;;;;;;21.20;5.30;;;5.30;99.90;;;;;;4976422;28;20620;-59
2024/01/27 00:09:13;;;;;;;38.28;8.48;;;5.40;99.90;;;;;;4957178;28;20081;-59
2024/01/27 00:11:39;;;;;;;25.58;5.45;;;5.40;99.90;;;;;;4968215;28;20073;-59
2024/01/27 00:14:05;;;;;;;32.33;5.45;;;5.30;99.90;;;;;;4953786;28;20186;-58
2024/01/27 00:16:30;;;;;;;27.85;4.97;;;5.30;99.90;;;;;;4975199;28;20038;-59
2024/01/27 00:18:56;;;;;;;35.75;5.53;;;5.40;99.90;;;;;;4969322;28;20148;-59
2024/01/27 00:21:22;;;;;;;32.05;5.93;;;5.40;99.90;;;;;;4987379;28;20602;-59
2024/01/27 00:23:47;;;;;;;33.90;6.18;;;5.30;99.90;;;;;;4955618;28;20043;-59
2024/01/27 00:26:13;;;;;;;24.83;5.18;;;5.30;99.90;;;;;;4977006;28;20191;-60
2024/01/27 00:28:39;;;;;;;25.15;4.57;;;5.30;99.90;;;;;;4970459;28;20042;-60
2024/01/27 00:31:05;;;;;;;23.85;4.50;;;5.20;99.90;;;;;;4981791;28;20088;-59
2024/01/27 00:33:30;;;;;;;21.30;3.65;;;5.20;99.90;;;;;;4984721;28;20054;-59
2024/01/27 00:35:56;;;;;;;27.73;4.00;;;5.10;99.90;;;;;;4949759;28;20045;-59
2024/01/27 00:38:22;;;;;;;23.10;3.83;;;5.20;99.90;;;;;;4986212;28;20114;-59
2024/01/27 00:40:47;;;;;;;25.85;4.35;;;5.10;99.90;;;;;;4970814;28;20081;-59
2024/01/27 00:43:13;;;;;;;28.30;4.75;;;5.20;99.90;;;;;;4949124;28;20069;-59
2024/01/27 00:45:39;;;;;;;23.75;3.83;;;5.10;99.90;;;;;;4965708;28;20187;-60
2024/01/27 00:48:05;;;;;;;22.30;5.68;;;5.10;99.90;;;;;;4973759;28;20050;-59
2024/01/27 00:50:30;;;;;;;26.75;5.70;;;5.10;99.90;;;;;;4948488;28;20034;-59
2024/01/27 00:52:56;;;;;;;36.42;6.20;;;5.10;99.90;;;;;;4964977;28;20045;-58
2024/01/27 00:55:22;;;;;;;27.75;4.57;;;5.10;99.90;;;;;;4981527;28;20061;-59
2024/01/27 00:57:47;;;;;;;24.42;4.60;;;5.00;99.90;;;;;;4942688;28;20133;-59
2024/01/27 01:00:14;;;;;;;31.73;5.25;;;5.10;99.90;;;;;;4973772;28;20492;-59
2024/01/27 01:02:40;;;;;;;21.83;5.78;;;5.00;99.90;;;;;;4974173;28;20092;-60
2024/01/27 01:05:07;;;;;;;23.67;3.72;;;5.00;99.90;;;;;;4971945;28;20042;-59
2024/01/27 01:07:33;;;;;;;25.88;3.83;;;5.00;99.90;;;;;;4964269;28;20043;-59
2024/01/27 01:09:59;;;;;;;25.80;5.25;;;5.00;99.90;;;;;;4967144;28;20409;-58
2024/01/27 01:12:27;;;;;;;24.75;3.75;;;5.00;99.90;;;;;;4971901;28;20039;-58
2024/01/27 01:14:53;;;;;;;25.73;4.57;;;5.10;99.90;;;;;;4966048;28;20097;-59
2024/01/27 01:17:19;;;;;;;29.33;4.47;;;5.10;99.90;;;;;;4946655;28;20898;-58
2024/01/27 01:19:45;;;;;;;28.98;5.40;;;5.10;99.90;;;;;;4981987;28;20505;-59
2024/01/27 01:22:10;;;;;;;24.58;4.18;;;5.10;99.90;;;;;;4982976;28;20095;-59
2024/01/27 01:24:36;;;;;;;22.30;3.40;;;5.10;99.90;;;;;;4969142;28;20034;-59
2024/01/27 01:27:03;;;;;;;26.23;3.95;;;5.10;99.90;;;;;;4957809;28;20117;-59
2024/01/27 01:29:28;;;;;;;20.65;3.90;;;5.10;99.90;;;;;;4954027;28;20041;-58
2024/01/27 01:31:54;;;;;;;24.13;3.83;;;5.10;99.90;;;;;;4989924;28;20050;-59
2024/01/27 01:34:20;;;;;;;26.92;5.05;;;5.00;99.90;;;;;;4965897;28;20075;-59
2024/01/27 01:36:47;;;;;;;17.50;4.07;;;5.00;99.90;;;;;;4967687;28;20512;-60
2024/01/27 01:39:13;;;;;;;22.90;3.95;;;5.00;99.90;;;;;;4967965;28;20082;-58
2024/01/27 01:41:39;;;;;;;17.88;3.38;;;5.00;99.90;;;;;;4952816;28;20104;-58
2024/01/27 01:44:05;;;;;;;21.02;4.60;;;5.00;99.90;;;;;;4985804;28;20577;-59
2024/01/27 01:46:32;;;;;;;22.80;5.13;;;4.90;99.90;;;;;;4975223;28;20489;-60
2024/01/27 01:48:58;;;;;;;26.05;5.85;;;5.00;99.90;;;;;;4970984;28;20507;-59
2024/01/27 01:51:27;;;;;;;23.75;5.30;;;4.90;99.90;;;;;;4991998;28;20463;-59
2024/01/27 01:53:57;;;;;;;25.75;6.45;;;4.90;99.90;;;;;;4966975;28;20054;-60
2024/01/27 01:56:23;;;;;;;27.33;5.70;;;4.90;99.90;;;;;;4967372;28;20053;-60
2024/01/27 01:58:49;;;;;;;26.27;6.38;;;4.90;99.90;;;;;;5004277;28;20493;-59
2024/01/27 02:01:17;;;;;;;25.90;6.85;;;4.90;99.90;;;;;;4997549;28;20049;-60
2024/01/27 02:03:54;;;;;;;26.33;5.47;;;4.80;99.90;;;;;;4969961;28;20088;-59
2024/01/27 02:06:20;;;;;;;19.38;4.35;;;4.90;99.90;;;;;;4973386;28;20052;-60
2024/01/27 02:08:47;;;;;;;32.72;5.15;;;4.80;99.90;;;;;;4970339;28;20417;-59
2024/01/27 02:11:15;;;;;;;20.88;3.70;;;4.80;99.90;;;;;;4967554;28;20969;-59
2024/01/27 02:13:41;;;;;;;21.63;4.90;;;4.80;99.90;;;;;;4966269;28;20150;-59
2024/01/27 02:16:07;;;;;;;19.08;4.00;;;4.80;99.90;;;;;;5027975;28;20035;-59
2024/01/27 02:18:32;;;;;;;27.13;4.10;;;4.80;99.90;;;;;;4962538;28;20043;-59
2024/01/27 02:20:58;;;;;;;17.50;4.18;;;4.80;99.90;;;;;;4959904;28;20110;-60
2024/01/27 02:23:24;;;;;;;28.98;5.72;;;4.80;99.90;;;;;;4987542;28;20382;-60
2024/01/27 02:25:50;;;;;;;25.95;4.75;;;4.80;99.90;;;;;;4962553;28;20489;-60
2024/01/27 02:28:16;;;;;;;32.90;6.38;;;4.80;99.90;;;;;;4962712;28;20042;-59
2024/01/27 02:30:42;;;;;;;22.55;4.82;;;4.70;99.90;;;;;;4966873;28;20117;-59
2024/01/27 02:33:08;;;;;;;28.33;5.30;;;4.80;99.90;;;;;;4965649;28;20622;-59
2024/01/27 02:35:34;;;;;;;25.10;6.43;;;4.70;99.90;;;;;;4966733;28;20046;-59
2024/01/27 02:37:59;;;;;;;23.92;4.95;;;4.80;99.90;;;;;;5034625;28;20078;-58
2024/01/27 02:40:25;;;;;;;20.23;4.45;;;4.70;99.90;;;;;;5038429;28;20052;-59
2024/01/27 02:42:51;;;;;;;16.00;3.33;;;4.70;99.90;;;;;;4984118;28;20276;-59
2024/01/27 02:45:16;;;;;;;30.40;3.75;;;4.70;99.90;;;;;;4947644;28;20034;-58
2024/01/27 02:47:42;;;;;;;25.30;3.88;;;4.70;99.90;;;;;;4951404;28;20119;-59
2024/01/27 02:50:08;;;;;;;24.20;3.30;;;4.80;99.90;;;;;;4965043;28;20038;-58
2024/01/27 02:52:34;;;;;;;22.52;4.63;;;4.70;99.90;;;;;;4964037;28;20390;-59
2024/01/27 02:55:00;;;;;;;25.60;4.47;;;4.70;99.90;;;;;;4972340;28;20034;-58
2024/01/27 02:57:26;;;;;;;19.33;3.42;;;4.70;99.90;;;;;;4981751;28;20044;-59
2024/01/27 02:59:52;;;;;;;26.08;3.45;;;4.70;99.90;;;;;;5001568;23;20032;-61
2024/01/27 03:02:18;;;;;;;28.17;3.78;;;4.70;99.90;;;;;;4950249;28;20113;-60
2024/01/27 03:04:43;;;;;;;24.00;4.15;;;4.70;99.90;;;;;;4967705;28;20073;-61
2024/01/27 03:07:09;;;;;;;20.83;3.53;;;4.70;99.90;;;;;;4965752;28;20435;-61
2024/01/27 03:09:36;;;;;;;23.83;4.40;;;4.60;99.90;;;;;;4981457;28;20051;-60
2024/01/27 03:12:02;;;;;;;22.45;3.65;;;4.60;99.90;;;;;;4953535;28;20046;-60
2024/01/27 03:14:28;;;;;;;25.45;4.75;;;4.60;99.90;;;;;;4951271;28;20043;-60
2024/01/27 03:16:54;;;;;;;25.92;4.32;;;4.60;99.90;;;;;;4916893;28;20054;-60
2024/01/27 03:19:20;;;;;;;21.70;3.55;;;4.50;99.90;;;;;;4949968;28;20047;-60
2024/01/27 03:21:46;;;;;;;18.27;3.65;;;4.60;99.90;;;;;;5009846;28;20146;-60
2024/01/27 03:24:12;;;;;;;25.73;4.10;;;4.50;99.90;;;;;;4943465;28;20078;-61
2024/01/27 03:26:37;;;;;;;17.90;3.47;;;4.40;99.90;;;;;;4972890;28;20034;-61
2024/01/27 03:29:03;;;;;;;19.70;3.45;;;4.40;99.90;;;;;;4949475;28;20037;-61
2024/01/27 03:31:35;;;;;;;19.05;2.85;;;4.40;99.90;;;;;;4935745;28;20104;-60
2024/01/27 03:34:01;;;;;;;18.48;4.60;;;4.40;99.90;;;;;;4946231;28;20313;-60
2024/01/27 03:36:27;;;;;;;21.60;5.03;;;4.40;99.90;;;;;;4957746;28;20036;-60
2024/01/27 03:38:54;;;;;;;22.75;6.03;;;4.30;99.90;;;;;;4964502;28;20039;-60
2024/01/27 03:41:20;;;;;;;13.88;4.47;;;4.30;99.90;;;;;;4945607;28;20043;-60
2024/01/27 03:43:45;;;;;;;20.92;5.22;;;4.30;99.90;;;;;;4926147;28;20122;-60
2024/01/27 03:46:11;;;;;;;26.17;4.13;;;4.30;99.90;;;;;;4954834;28;20467;-60
2024/01/27 03:48:37;;;;;;;21.55;3.65;;;4.30;99.90;;;;;;4956618;28;20043;-59
2024/01/27 03:51:03;;;;;;;18.40;3.75;;;4.30;99.90;;;;;;4936715;28;20065;-60
2024/01/27 03:53:29;;;;;;;19.05;4.03;;;4.30;99.90;;;;;;4957227;28;20528;-60
2024/01/27 03:55:58;;;;;;;20.20;3.67;;;4.30;99.90;;;;;;4937606;28;20043;-60
2024/01/27 03:58:24;;;;;;;19.02;3.47;;;4.20;99.90;;;;;;5015255;28;20387;-61
2024/01/27 04:00:50;;;;;;;18.67;4.25;;;4.20;99.90;;;;;;4951400;28;20050;-60
2024/01/27 04:03:15;;;;;;;19.35;4.32;;;4.20;99.90;;;;;;4974491;28;20046;-61
2024/01/27 04:05:41;;;;;;;22.33;3.80;;;4.20;99.90;;;;;;4954220;28;20110;-60
2024/01/27 04:08:07;;;;;;;20.73;4.13;;;4.20;99.90;;;;;;4925394;28;20040;-60
2024/01/27 04:10:32;;;;;;;20.05;3.17;;;4.20;99.90;;;;;;4949230;28;22080;-61
2024/01/27 04:12:58;;;;;;;23.83;5.55;;;4.30;99.90;;;;;;4935472;28;20318;-60
2024/01/27 04:15:24;;;;;;;20.25;3.65;;;4.30;99.90;;;;;;4947983;28;20070;-60
2024/01/27 04:17:50;;;;;;;49.25;5.90;;;4.40;99.90;;;;;;4937474;28;20031;-60
2024/01/27 04:20:15;;;;;;;21.08;3.53;;;4.40;99.90;;;;;;4950721;28;20047;-60
2024/01/27 04:22:41;;;;;;;24.80;3.38;;;4.50;99.90;;;;;;4997813;28;20043;-61
2024/01/27 04:25:07;;;;;;;17.13;3.40;;;4.50;99.90;;;;;;4944112;28;20055;-61
2024/01/27 04:27:38;;;;;;;26.35;3.97;;;4.50;99.90;;;;;;4935013;28;20146;-61
2024/01/27 04:30:06;;;;;;;22.65;4.03;;;4.50;99.90;;;;;;4991914;28;20047;-61
2024/01/27 04:32:32;;;;;;;17.73;3.35;;;4.50;99.90;;;;;;4929977;28;20047;-61
2024/01/27 04:34:58;;;;;;;19.00;3.13;;;4.50;99.90;;;;;;4991919;28;21256;-60
2024/01/27 04:37:23;;;;;;;25.83;4.32;;;4.60;99.90;;;;;;4911663;28;20027;-61
2024/01/27 04:39:50;;;;;;;18.02;3.88;;;4.50;99.90;;;;;;4958122;28;20636;-61
2024/01/27 04:42:16;;;;;;;17.83;3.47;;;4.50;99.90;;;;;;4969808;28;20056;-59
2024/01/27 04:44:42;;;;;;;22.95;3.70;;;4.60;99.90;;;;;;4943564;28;20513;-60
2024/01/27 04:47:08;;;;;;;27.83;4.43;;;4.60;99.90;;;;;;4937091;28;20267;-60
2024/01/27 04:49:34;;;;;;;18.55;4.00;;;4.60;99.90;;;;;;4907319;28;20047;-60
2024/01/27 04:51:59;;;;;;;17.58;4.35;;;4.60;99.90;;;;;;4913909;28;20044;-60
2024/01/27 04:54:25;;;;;;;18.80;3.47;;;4.60;99.90;;;;;;4978313;28;20056;-61
2024/01/27 04:56:51;;;;;;;15.02;2.97;;;4.60;99.90;;;;;;4966844;28;20487;-60
2024/01/27 04:59:17;;;;;;;27.45;4.38;;;4.60;99.90;;;;;;4937899;28;20050;-61
2024/01/27 05:01:46;;;;;;;22.98;5.15;;;4.60;99.90;;;;;;4970847;28;20351;-60
2024/01/27 05:04:12;;;;;;;18.50;3.30;;;4.60;99.90;;;;;;4999041;28;20488;-61
2024/01/27 05:06:41;;;;;;;24.23;5.30;;;4.60;99.90;;;;;;4990208;28;20392;-59
2024/01/27 05:09:07;;;;;;;20.73;3.45;;;4.60;99.90;;;;;;4936362;28;20109;-60
2024/01/27 05:11:33;;;;;;;20.17;5.20;;;4.50;99.90;;;;;;4941345;29;20086;-60
2024/01/27 05:14:02;;;;;;;19.60;3.58;;;4.50;99.90;;;;;;4912341;28;20135;-60
2024/01/27 05:16:28;;;;;;;20.02;4.30;;;4.50;99.90;;;;;;4928788;28;20050;-60
2024/01/27 05:18:54;;;;;;;26.02;4.28;;;4.40;99.90;;;;;;4924145;28;20402;-60
2024/01/27 05:21:20;;;;;;;24.98;3.95;;;4.40;99.90;;;;;;4946881;28;20349;-61
2024/01/27 05:23:46;;;;;;;18.20;3.65;;;4.40;99.90;;;;;;4939573;28;20307;-60
2024/01/27 05:26:11;;;;;;;26.98;4.78;;;4.40;99.90;;;;;;4963392;28;20043;-61
2024/01/27 05:28:39;;;;;;;27.67;3.60;;;4.40;99.90;;;;;;4928809;28;20044;-60
2024/01/27 05:31:10;;;;;;;24.88;3.90;;;4.40;99.90;;;;;;4996415;28;20044;-60
2024/01/27 05:33:37;;;;;;;21.55;3.88;;;4.40;99.90;;;;;;4929616;28;20040;-58
2024/01/27 05:36:02;;;;;;;24.25;4.32;;;4.40;99.90;;;;;;4939059;28;20041;-60
2024/01/27 05:38:30;;;;;;;17.02;4.15;;;4.40;99.90;;;;;;4932746;28;20047;-60
2024/01/27 05:40:55;;;;;;;20.27;3.75;;;4.40;99.90;;;;;;4957452;28;20041;-60
2024/01/27 05:43:22;;;;;;;23.77;3.42;;;4.40;99.90;;;;;;4991854;28;21285;-59
2024/01/27 05:45:49;;;;;;;24.58;3.72;;;4.40;99.90;;;;;;4986648;28;20121;-60
2024/01/27 05:48:14;;;;;;;19.65;2.95;;;4.40;99.90;;;;;;4990832;28;20047;-60
2024/01/27 05:50:42;;;;;;;21.02;4.00;;;4.40;99.90;;;;;;5012360;28;20099;-60
2024/01/27 05:53:08;;;;;;;21.83;3.10;;;4.40;99.90;;;;;;4983375;28;20036;-61
2024/01/27 05:55:34;;;;;;;18.17;3.50;;;4.40;99.90;;;;;;4943066;28;20043;-61
2024/01/27 05:57:59;;;;;;;22.30;3.30;;;4.40;99.90;;;;;;4942357;28;20076;-61
2024/01/27 06:00:25;;;;;;;13.07;3.40;;;4.40;99.90;;;;;;4936968;28;20525;-61
2024/01/27 06:02:51;;;;;;;27.20;4.50;;;4.40;99.90;;;;;;4993611;28;20236;-61
2024/01/27 06:05:17;;;;;;;21.67;3.60;;;4.30;99.90;;;;;;4973311;28;20060;-61
2024/01/27 06:07:43;;;;;;;20.60;3.28;;;4.30;99.90;;;;;;4946222;28;20548;-61
2024/01/27 06:10:09;;;;;;;24.50;3.50;;;4.40;99.90;;;;;;5001390;28;20056;-61
2024/01/27 06:12:37;;;;;;;21.27;3.58;;;4.30;99.90;;;;;;4926029;28;20043;-60
2024/01/27 06:15:03;;;;;;;17.90;3.22;;;4.30;99.90;;;;;;4954463;28;20046;-60
2024/01/27 06:17:29;;;;;;;26.65;3.72;;;4.30;99.90;;;;;;4951205;28;20044;-59
2024/01/27 06:19:55;;;;;;;20.42;3.33;;;4.30;99.90;;;;;;4948046;28;20039;-61
2024/01/27 06:22:21;;;;;;;31.95;5.10;;;4.20;99.90;;;;;;4962994;28;20104;-61
2024/01/27 06:24:46;;;;;;;21.20;2.97;;;4.20;99.90;;;;;;4946865;28;20218;-60
2024/01/27 06:27:12;;;;;;;16.88;3.00;;;4.20;99.90;;;;;;4940318;28;20078;-60
2024/01/27 06:29:39;;;;;;;18.80;3.15;;;4.20;99.90;;;;;;4945585;28;20503;-61
2024/01/27 06:32:05;;;;;;;19.83;4.55;;;4.20;99.90;;;;;;4931072;28;20042;-61
2024/01/27 06:34:32;;;;;;;19.25;3.38;;;4.20;99.90;;;;;;4949300;28;20502;-61
2024/01/27 06:36:58;;;;;;;22.58;4.75;;;4.20;99.90;;;;;;4932359;28;20051;-61
2024/01/27 06:39:24;;;;;;;19.40;4.18;;;4.20;99.90;;;;;;4919884;28;20046;-61
2024/01/27 06:41:49;;;;;;;20.23;3.80;;;4.20;99.90;;;;;;4940231;28;20123;-60
2024/01/27 06:44:15;;;;;;;21.65;3.92;;;4.20;99.90;;;;;;4962341;28;20180;-61
2024/01/27 06:46:41;;;;;;;27.67;4.35;;;4.20;99.90;;;;;;4938351;28;20494;-61
2024/01/27 06:49:06;;;;;;;24.50;4.20;;;4.20;99.90;;;;;;4954444;28;20074;-61
2024/01/27 06:51:32;;;;;;;23.02;4.22;;;4.20;99.90;;;;;;4956878;28;20499;-60
2024/01/27 06:53:58;;;;;;;21.85;4.40;;;4.20;99.90;;;;;;4934189;28;20035;-61
2024/01/27 06:56:23;;;;;;;25.10;3.75;;;4.20;99.90;;;;;;4943492;28;20134;-60
2024/01/27 06:58:49;;;;;;;27.65;4.60;;;4.20;99.90;;;;;;4942060;28;20043;-61
2024/01/27 07:01:15;;;;;;;24.42;4.70;;;4.20;99.90;;;;;;4946927;28;20667;-60
2024/01/27 07:03:41;;;;;;;24.05;3.80;;;4.10;99.90;;;;;;4970493;28;20146;-59
2024/01/27 07:06:07;;;;;;;23.38;4.25;;;4.10;99.90;;;;;;4902158;28;20285;-60
2024/01/27 07:08:32;;;;;;;20.40;4.22;;;4.10;99.90;;;;;;4933705;28;20047;-60
2024/01/27 07:10:58;;;;;;;22.15;3.70;;;4.10;99.90;;;;;;4954946;28;20039;-60
2024/01/27 07:13:24;;;;;;;24.77;5.13;;;4.10;99.90;;;;;;4948361;28;20050;-60
2024/01/27 07:15:50;;;;;;;31.15;6.60;;;4.00;99.90;;;;;;4949479;28;20031;-60
2024/01/27 07:29:30;;;;;;;23.67;4.13;;;3.90;99.90;;;;;;4954043;28;20417;-60
2024/01/27 07:31:58;;;;;;;24.13;4.57;;;3.90;99.90;;;;;;4941333;28;20063;-60
2024/01/27 07:34:24;;;;;;;21.48;3.97;;;3.90;99.90;;;;;;4951156;28;20052;-60
2024/01/27 07:36:50;;;;;;;27.08;4.32;;;3.90;99.90;;;;;;4930488;28;20035;-60
2024/01/27 07:39:16;;;;;;;24.92;4.05;;;3.90;99.90;;;;;;4952499;28;20070;-60
2024/01/27 07:41:42;;;;;;;21.70;4.53;;;3.90;99.90;;;;;;4950209;28;20043;-61
2024/01/27 07:44:13;;;;;;;20.70;4.30;;;3.90;99.90;;;;;;4934532;28;20085;-61
2024/01/27 07:46:40;;;;;;;19.42;4.95;;;4.00;99.90;;;;;;4931052;28;20114;-61
2024/01/27 07:49:09;;;;;;;23.65;3.83;;;4.00;99.90;;;;;;4948001;28;20050;-61
2024/01/27 07:51:35;;;;;;;16.77;3.90;;;3.90;99.90;;;;;;4933027;28;20458;-61
2024/01/27 07:54:01;;;;;;;22.45;4.43;;;3.90;99.90;;;;;;4946416;28;20331;-61
2024/01/27 07:56:27;;;;;;;22.30;5.05;;;4.00;99.90;;;;;;4946396;28;20090;-60
2024/01/27 07:58:53;;;;;;;22.67;4.03;;;4.00;99.90;;;;;;4946504;28;20075;-60
2024/01/27 08:01:20;;;;;;;23.25;3.78;;;4.00;99.90;;;;;;4996899;28;20130;-60
2024/01/27 08:03:48;;;;;;;22.27;4.28;;;4.10;99.90;;;;;;5005734;28;20071;-60
2024/01/27 08:06:17;;;;;;;24.02;4.72;;;4.10;99.90;;;;;;4939008;28;20039;-60
2024/01/27 08:08:47;;;;;;;24.83;3.95;;;4.10;99.90;;;;;;5007576;28;20035;-61
2024/01/27 08:11:14;;;;;;;30.35;4.32;;;4.10;99.90;;;;;;4949623;28;20043;-61
2024/01/27 08:13:41;;;;;;;23.02;3.92;;;4.20;99.90;;;;;;4935194;28;20077;-61
2024/01/27 08:16:09;;;;;;;18.73;3.55;;;4.30;99.90;;;;;;4963406;28;20044;-60
2024/01/27 08:18:36;;;;;;;22.38;4.00;;;4.30;99.90;;;;;;4927875;29;20067;-60
2024/01/27 08:21:03;;;;;;;25.58;4.80;;;4.40;99.90;;;;;;4940725;28;20486;-61
2024/01/27 08:23:28;;;;;;;28.27;5.25;;;4.40;99.90;;;;;;4942052;28;20043;-60
2024/01/27 08:25:54;;;;;;;25.25;3.72;;;4.50;99.90;;;;;;4951648;28;20035;-60
2024/01/27 08:28:20;;;;;;;25.08;5.32;;;4.50;99.90;;;;;;4932791;28;20452;-61
2024/01/27 08:30:45;;;;;;;30.75;4.32;;;4.50;99.90;;;;;;4955003;28;20050;-61
2024/01/27 08:33:11;;;;;;;26.92;4.63;;;4.60;99.90;;;;;;4924270;28;20039;-61
2024/01/27 08:35:37;;;;;;;23.05;4.55;;;4.70;99.90;;;;;;4931898;28;20159;-61
2024/01/27 08:38:03;;;;;;;18.98;3.55;;;4.80;99.90;;;;;;4927762;28;20414;-61
2024/01/27 08:40:29;;;;;;;19.83;4.28;;;4.80;99.90;;;;;;4960146;28;20050;-60
2024/01/27 08:42:55;;;;;;;24.42;4.38;;;4.80;99.90;;;;;;4913677;28;20450;-61
2024/01/27 08:45:21;;;;;;;24.98;4.40;;;4.90;99.90;;;;;;4916888;28;20089;-61
2024/01/27 08:47:47;;;;;;;26.02;4.60;;;4.90;99.90;;;;;;4959068;28;20401;-62
2024/01/27 08:50:12;;;;;;;27.35;5.40;;;4.90;99.90;;;;;;4945557;28;20075;-61
2024/01/27 08:52:38;;;;;;;23.65;4.93;;;5.10;99.90;;;;;;4929253;28;20468;-62
2024/01/27 08:55:04;;;;;;;29.00;5.57;;;5.10;99.90;;;;;;4913168;29;20039;-61
2024/01/27 08:57:30;;;;;;;28.83;4.65;;;5.20;99.90;;;;;;4938979;28;20141;-61
2024/01/27 08:59:55;;;;;;;21.95;4.35;;;5.20;99.90;;;;;;4929697;28;20058;-64
2024/01/27 09:02:21;;;;;;;28.73;5.00;;;5.30;99.90;;;;;;4930582;28;20501;-64
2024/01/27 09:04:47;;;;;;;19.60;4.68;;;5.30;99.90;;;;;;4941815;28;20040;-64
2024/01/27 09:07:12;;;;;;;23.42;4.25;;;5.40;99.90;;;;;;4937894;28;20681;-64
2024/01/27 09:09:38;;;;;;;29.95;5.40;;;5.50;99.90;;;;;;4938690;28;20047;-64
2024/01/27 09:12:04;;;;;;;26.85;4.97;;;5.50;99.90;;;;;;4924557;28;20422;-64
2024/01/27 09:14:30;;;;;;;20.95;4.30;;;5.60;99.90;;;;;;4939889;28;20071;-64
2024/01/27 09:16:56;;;;;;;23.55;5.35;;;5.60;99.90;;;;;;4946981;28;20051;-64
2024/01/27 09:19:22;;;;;;;22.92;4.32;;;5.70;99.90;;;;;;4908725;28;20680;-64
2024/01/27 09:21:48;;;;;;;22.48;4.28;;;5.70;99.90;;;;;;4927493;28;20043;-64
2024/01/27 09:24:14;;;;;;;29.75;4.97;;;5.80;99.90;;;;;;4943790;28;20039;-64
2024/01/27 09:26:40;;;;;;;23.80;5.32;;;5.90;99.90;;;;;;4948879;28;20413;-64
2024/01/27 09:29:05;;;;;;;22.17;5.68;;;6.00;99.90;;;;;;4945278;28;20119;-64
2024/01/27 09:31:31;;;;;;;24.40;5.38;;;6.00;99.90;;;;;;4956084;28;20426;-64
2024/01/27 09:33:57;;;;;;;26.77;5.20;;;6.10;99.90;;;;;;4950049;28;20040;-64
2024/01/27 09:36:22;;;;;;;22.02;6.07;;;6.10;99.90;;;;;;4954296;28;20043;-64
2024/01/27 09:38:48;;;;;;;28.83;5.63;;;6.20;99.90;;;;;;4932954;28;20642;-64
2024/01/27 09:41:14;;;;;;;24.13;5.55;;;6.30;99.90;;;;;;4947785;28;20130;-64
2024/01/27 09:43:44;;;;;;;24.27;4.75;;;6.40;99.90;;;;;;4940300;28;20093;-64
2024/01/27 09:46:14;;;;;;;22.75;5.63;;;6.40;99.90;;;;;;4945583;28;20051;-64
2024/01/27 09:48:39;;;;;;;26.17;5.25;;;6.50;99.90;;;;;;4929772;28;20142;-64
2024/01/27 09:51:08;;;;;;;18.90;4.80;;;6.50;99.90;;;;;;4942808;28;20130;-64
2024/01/27 09:53:34;;;;;;;26.10;5.75;;;6.60;99.90;;;;;;4934502;28;20050;-64
2024/01/27 09:56:04;;;;;;;30.05;6.63;;;6.70;99.90;;;;;;4935450;28;20038;-64
2024/01/27 09:58:30;;;;;;;29.65;6.05;;;6.80;99.90;;;;;;4928101;28;20080;-64
2024/01/27 10:00:59;;;;;;;28.67;6.25;;;6.80;99.90;;;;;;4931717;28;20085;-64
2024/01/27 10:03:26;;;;;;;19.60;5.00;;;6.90;99.90;;;;;;5011128;28;20055;-64
2024/01/27 10:05:53;;;;;;;31.27;6.40;;;7.00;99.90;;;;;;4933601;28;20051;-64
2024/01/27 10:08:20;;;;;;;18.67;5.18;;;7.10;99.90;;;;;;4928969;28;20054;-64
2024/01/27 10:10:46;;;;;;;23.33;5.80;;;7.10;99.90;;;;;;4942739;28;20050;-64
2024/01/27 10:13:26;;;;;;;22.65;5.28;;;7.20;99.90;;;;;;4936626;28;20142;-64
2024/01/27 10:16:06;;;;;;;23.80;5.57;;;7.30;99.90;;;;;;4957450;28;20113;-64
2024/01/27 10:18:33;;;;;;;24.08;6.18;;;7.40;99.90;;;;;;4936437;28;20116;-64
2024/01/27 10:20:59;;;;;;;25.83;5.57;;;7.50;99.90;;;;;;4953911;28;20040;-64
2024/01/27 10:23:25;;;;;;;24.92;5.72;;;7.50;99.90;;;;;;4947620;28;20047;-64
2024/01/27 10:25:51;;;;;;;28.15;6.10;;;7.60;99.90;;;;;;4953796;28;20096;-64
2024/01/27 10:28:17;;;;;;;21.33;5.55;;;7.70;99.90;;;;;;4954135;28;20054;-64
2024/01/27 10:30:44;;;;;;;20.83;6.28;;;7.70;99.90;;;;;;4949028;28;20126;-64
2024/01/27 10:33:13;;;;;;;28.73;5.43;;;7.80;99.90;;;;;;4945868;28;20043;-64
2024/01/27 10:35:42;;;;;;;37.38;5.38;;;7.90;99.90;;;;;;4937880;28;20074;-64
2024/01/27 10:38:08;;;;;;;26.00;5.75;;;7.90;99.90;;;;;;4939574;28;20039;-64
2024/01/27 10:40:37;;;;;;;23.27;5.68;;;8.00;99.90;;;;;;4986969;28;20052;-64
2024/01/27 10:43:09;;;;;;;39.70;8.60;;;8.10;99.90;;;;;;4970126;28;20069;-64
2024/01/27 10:45:36;;;;;;;32.00;6.38;;;8.10;99.90;;;;;;4921681;28;20058;-63
2024/01/27 10:48:04;;;;;;;23.65;6.00;;;8.20;99.90;;;;;;4919224;28;20498;-64
2024/01/27 10:50:30;;;;;;;22.95;7.00;;;8.20;99.90;;;;;;4929116;28;20051;-64
2024/01/27 10:52:58;;;;;;;22.63;5.22;;;8.30;99.90;;;;;;4924341;28;20106;-64
2024/01/27 10:55:25;;;;;;;23.90;5.53;;;8.30;99.90;;;;;;4933763;28;20050;-64
2024/01/27 10:57:55;;;;;;;22.83;5.03;;;8.40;99.90;;;;;;4912624;28;20237;-64
2024/01/27 11:00:22;;;;;;;23.98;5.60;;;8.40;99.90;;;;;;4933202;28;20059;-64
2024/01/27 11:02:53;;;;;;;26.45;5.57;;;8.50;99.90;;;;;;4913905;28;20537;-64
2024/01/27 11:05:20;;;;;;;21.50;5.40;;;8.60;99.90;;;;;;4919867;28;20040;-64
2024/01/27 11:07:46;;;;;;;27.08;5.13;;;8.60;99.90;;;;;;4944959;28;20047;-64
2024/01/27 11:10:12;;;;;;;25.05;5.10;;;8.70;99.90;;;;;;4976742;28;20037;-64
2024/01/27 11:12:39;;;;;;;24.40;5.00;;;8.70;99.90;;;;;;4927557;28;20615;-64
2024/01/27 11:15:06;;;;;;;22.95;4.75;;;8.80;99.90;;;;;;4928618;28;20039;-64
2024/01/27 11:17:42;;;;;;;25.60;4.95;;;8.90;99.90;;;;;;4916938;28;20059;-64
2024/01/27 11:20:11;;;;;;;19.92;4.65;;;8.90;99.90;;;;;;5016307;28;20051;-64
2024/01/27 11:22:37;;;;;;;28.58;5.13;;;9.00;99.90;;;;;;4958151;28;20499;-64
2024/01/27 11:25:12;;;;;;;25.58;5.85;;;9.10;99.90;;;;;;4986456;28;20051;-64
2024/01/27 11:27:39;;;;;;;19.10;4.32;;;9.00;99.90;;;;;;4931910;28;20053;-64
2024/01/27 11:30:06;;;;;;;25.35;4.15;;;9.00;99.90;;;;;;4929235;28;20037;-64
2024/01/27 11:32:32;;;;;;;26.85;5.90;;;9.10;99.90;;;;;;4926389;28;20101;-64
2024/01/27 11:35:02;;;;;;;18.77;4.70;;;9.00;99.90;;;;;;5003286;28;20054;-64
2024/01/27 11:37:31;;;;;;;22.30;5.65;;;9.00;99.90;;;;;;4940450;28;20046;-64
2024/01/27 11:40:07;;;;;;;18.65;4.95;;;9.10;99.90;;;;;;4987420;28;20042;-64
2024/01/27 11:42:33;;;;;;;19.77;5.00;;;9.20;99.90;;;;;;4926524;28;20054;-64
2024/01/27 11:44:58;;;;;;;26.42;5.15;;;9.20;99.90;;;;;;4918358;28;20045;-64
2024/01/27 11:47:26;;;;;;;22.15;3.83;;;9.20;99.90;;;;;;4932162;28;20039;-64
2024/01/27 11:49:55;;;;;;;23.30;5.20;;;9.30;99.90;;;;;;4968512;28;20037;-64
2024/01/27 11:52:21;;;;;;;27.15;7.93;;;9.30;99.90;;;;;;4941007;28;20082;-64
2024/01/27 11:54:57;;;;;;;24.83;7.38;;;9.30;99.90;;;;;;4955625;28;20093;-64
2024/01/27 11:57:23;;;;;;;29.23;9.07;;;9.40;99.90;;;;;;4944815;28;20580;-64
2024/01/27 11:59:50;;;;;;;21.50;5.95;;;9.30;99.90;;;;;;4948284;28;20118;-64
2024/01/27 12:02:16;;;;;;;24.00;5.93;;;9.30;99.90;;;;;;4949342;28;20042;-64
2024/01/27 12:04:42;;;;;;;22.73;6.05;;;9.40;99.90;;;;;;4973898;28;20049;-64
2024/01/27 12:07:07;;;;;;;20.77;5.53;;;9.50;99.90;;;;;;5013266;28;20047;-64
2024/01/27 12:09:34;;;;;;;22.23;5.55;;;9.50;99.90;;;;;;4962577;28;20037;-64
2024/01/27 12:12:00;;;;;;;24.02;6.30;;;9.60;99.90;;;;;;4973590;28;20565;-64
2024/01/27 12:14:36;;;;;;;16.25;6.00;;;9.60;99.90;;;;;;4961469;28;20130;-64
2024/01/27 12:17:02;;;;;;;25.88;5.50;;;9.60;99.90;;;;;;4939984;28;20420;-64
2024/01/27 12:19:28;;;;;;;25.83;4.93;;;9.70;99.90;;;;;;4929571;28;20039;-64
2024/01/27 12:21:54;;;;;;;23.60;4.45;;;9.80;99.90;;;;;;4934950;28;20051;-64
2024/01/27 12:24:19;;;;;;;18.92;4.55;;;9.80;99.90;;;;;;4932851;28;20361;-64
2024/01/27 12:26:45;;;;;;;26.70;5.72;;;9.80;99.90;;;;;;4934425;28;20031;-64
2024/01/27 12:29:11;;;;;;;21.05;4.90;;;9.80;99.90;;;;;;4931238;28;20058;-64
2024/01/27 12:31:37;;;;;;;24.40;4.95;;;9.80;99.90;;;;;;4952760;28;20051;-63
2024/01/27 12:34:03;;;;;;;24.80;5.05;;;9.90;99.90;;;;;;5020094;28;20047;-64
2024/01/27 12:36:29;;;;;;;25.35;5.30;;;9.80;99.90;;;;;;4956039;28;20043;-64
2024/01/27 12:38:59;;;;;;;29.35;6.70;;;9.80;99.90;;;;;;4972853;28;20390;-64
2024/01/27 12:41:25;;;;;;;22.55;4.90;;;9.80;99.90;;;;;;4940549;28;20413;-64
2024/01/27 12:43:52;;;;;;;25.00;4.93;;;9.90;99.90;;;;;;5019858;28;20047;-64
2024/01/27 12:46:17;;;;;;;18.70;5.90;;;9.80;99.90;;;;;;4942086;28;20043;-64
2024/01/27 12:48:45;;;;;;;20.52;5.85;;;9.70;99.90;;;;;;4963651;28;20371;-64
2024/01/27 12:51:10;;;;;;;18.08;4.60;;;9.70;99.90;;;;;;4933118;28;20047;-64
2024/01/27 12:53:41;;;;;;;19.73;5.78;;;9.70;99.90;;;;;;4973943;28;20450;-64
2024/01/27 12:56:11;;;;;;;19.80;3.78;;;9.70;99.90;;;;;;5021894;28;20212;-63